map of INI home
INI - Airport
Location
City:  Nis, Serbia
Name:Constantine the Great International Airport
Old (Alt.):Medosevac
ICAO:LYNI
IATA:INI

Details
Type:Airport (Aerodrome, Airfield)
Use:International (customs port of entry)
Latitude:4320'14"N (43.337289)
Longitude:2151'13"E (21.853722)
Datum:WGS 1984
Elevation:648 ft (198 m)
Variation:4.78E (WMM2015 magnetic declination)
0.11 annual change
Runways:1
Longest:8202 × 148 ft (2500 × 45 m), paved

Time
Time Zone:UTC+1 (DST+2)
Local Time:

Weather
METAR:LYNI 192100Z 30004KT CAVOK 08/M00 Q1011
TAF:LYNI 191700Z 1918/2018 17005KT CAVOK TX05/1918Z TN00/2005Z
BECMG 1921/1923 33012KT 5000 RA BKN010 OVC025
TEMPO 1921/2006 33022G32KT
BECMG 2009/2011 3000 SN

Related Locations
Nearby:
Farthest:CHT: 11523 mi / 18544 km
Waitangi [Tuuta], CIT, NZ

Find:

   beyond  
but within

Other Information
Maps:
NOTAMs:
Links:
Sources:

  
flag of Serbia   

Sectional Chart

Flight Planning
at skyvector.com

Satellite Image

Google Maps Satellite view

 

Copyright © 2004-2018 Karl L. Swartz. All rights reserved.
The Great Circle Mapper name and logo are trademarks of the Great Circle Mapper.
All other trademarks mentioned herein belong to their respective owners.
Please see credits for attibutions and further copyright information.

  Follow gcmap on Facebook Follow gcmap on Twitter Follow gcmap on Google+ GCmap on LinkedIn

hCard Microformat

Geo Microformat